Time;durP1;ratioP1;P1;durP2;ratioP2;P2;SDS_P1;SDS_P2;PMS_P1;PMS_P2;Temp;Humidity;BMP_temperature;BMP_pressure;BME280_temperature;BME280_humidity;BME280_pressure;Samples;Min_cycle;Max_cycle;Signal;HPM_P1;HPM_P2
2022/06/27 00:00:03;;;;;;;0.40;0.20;;;;;;;19.16;100.00;99976.47;5032366;28;20459;-52
2022/06/27 00:02:29;;;;;;;0.40;0.20;;;;;;;19.46;100.00;99968.97;5032241;28;20496;-53
2022/06/27 00:04:56;;;;;;;0.40;0.20;;;;;;;19.32;100.00;99976.25;5032104;28;20462;-53
2022/06/27 00:07:22;;;;;;;0.40;0.20;;;;;;;19.14;100.00;99983.81;5032237;28;20448;-52
2022/06/27 00:09:49;;;;;;;0.40;0.20;;;;;;;19.14;100.00;99999.97;5031937;28;20447;-52
2022/06/27 00:12:15;;;;;;;0.40;0.20;;;;;;;19.14;100.00;100014.31;5032234;28;20467;-53
2022/06/27 00:14:42;;;;;;;0.40;0.20;;;;;;;19.05;100.00;100016.75;5031033;28;20937;-53
2022/06/27 00:17:09;;;;;;;0.40;0.30;;;;;;;19.12;100.00;100016.25;5032828;28;20463;-53
2022/06/27 00:19:35;;;;;;;0.40;0.20;;;;;;;19.17;100.00;100032.94;5026055;28;20453;-53
2022/06/27 00:22:04;;;;;;;0.40;0.20;;;;;;;19.11;100.00;100040.59;5025163;28;20496;-53
2022/06/27 00:24:31;;;;;;;0.40;0.20;;;;;;;19.09;100.00;100031.78;5022944;28;20964;-53
2022/06/27 00:26:58;;;;;;;0.40;0.20;;;;;;;19.12;100.00;100045.88;5023009;28;20456;-53
2022/06/27 00:29:25;;;;;;;0.40;0.20;;;;;;;19.09;100.00;100062.25;5031993;28;20814;-53
2022/06/27 00:31:51;;;;;;;0.40;0.20;;;;;;;19.31;100.00;100067.03;5032045;28;20463;-52
2022/06/27 00:34:18;;;;;;;0.40;0.20;;;;;;;19.30;100.00;100076.09;5005649;28;20514;-53
2022/06/27 00:36:44;;;;;;;0.40;0.20;;;;;;;19.39;100.00;100078.19;5031949;28;20803;-53
2022/06/27 00:39:11;;;;;;;0.40;0.20;;;;;;;19.30;100.00;100068.00;5005903;28;20455;-53
2022/06/27 00:41:37;;;;;;;0.40;0.20;;;;;;;19.22;100.00;100083.88;5031587;28;20992;-52
2022/06/27 00:44:04;;;;;;;0.40;0.20;;;;;;;19.18;100.00;100083.19;5005977;28;20462;-53
2022/06/27 00:46:30;;;;;;;0.40;0.20;;;;;;;19.28;100.00;100074.50;5032025;28;20452;-52
2022/06/27 00:48:57;;;;;;;0.40;0.20;;;;;;;19.23;100.00;100078.38;5031902;28;20866;-53
2022/06/27 00:51:24;;;;;;;0.40;0.20;;;;;;;19.14;100.00;100075.41;5031715;28;20479;-53
2022/06/27 00:53:54;;;;;;;0.40;0.20;;;;;;;19.12;100.00;100072.84;5009356;28;20444;-53
2022/06/27 00:56:21;;;;;;;0.40;0.20;;;;;;;19.27;100.00;100075.47;5031935;28;20448;-53
2022/06/27 00:58:48;;;;;;;0.40;0.20;;;;;;;19.14;100.00;100076.28;5031825;28;20907;-53
2022/06/27 01:01:14;;;;;;;0.40;0.20;;;;;;;19.40;100.00;100079.03;5031488;28;20492;-53
2022/06/27 01:03:41;;;;;;;0.40;0.20;;;;;;;19.41;100.00;100078.94;5031584;28;20447;-53
2022/06/27 01:06:07;;;;;;;0.40;0.20;;;;;;;19.28;100.00;100077.19;5031833;28;20455;-53
2022/06/27 01:08:35;;;;;;;0.40;0.20;;;;;;;19.38;100.00;100068.38;5031592;28;20793;-53
2022/06/27 01:11:01;;;;;;;0.40;0.20;;;;;;;19.16;100.00;100058.19;5031590;28;20511;-53
2022/06/27 01:13:29;;;;;;;0.43;0.37;;;;;;;19.15;100.00;100055.59;5031702;28;20451;-53
2022/06/27 01:15:56;;;;;;;0.40;0.20;;;;;;;18.76;100.00;100043.81;5030402;28;20458;-53
2022/06/27 01:18:23;;;;;;;0.40;0.20;;;;;;;18.51;100.00;100027.53;5031485;28;20940;-52
2022/06/27 01:20:49;;;;;;;0.40;0.20;;;;;;;18.47;100.00;100016.09;5018017;28;21037;-53
2022/06/27 01:23:16;;;;;;;0.40;0.20;;;;;;;18.22;100.00;99999.81;5026511;28;20462;-53
2022/06/27 01:25:43;;;;;;;0.40;0.20;;;;;;;18.28;100.00;99976.06;5029083;28;20458;-52
2022/06/27 01:28:10;;;;;;;0.40;0.20;;;;;;;18.18;100.00;99966.00;5025890;28;20460;-53
2022/06/27 01:30:37;;;;;;;0.40;0.20;;;;;;;18.14;100.00;99951.91;5034874;28;20452;-53
2022/06/27 01:33:03;;;;;;;0.40;0.20;;;;;;;18.21;100.00;99946.97;5035001;28;20459;-53
2022/06/27 01:35:30;;;;;;;0.40;0.20;;;;;;;18.20;100.00;99942.56;5034809;28;20530;-53
2022/06/27 01:37:57;;;;;;;0.40;0.20;;;;;;;18.14;100.00;99933.06;5035080;28;20458;-53
2022/06/27 01:40:23;;;;;;;0.40;0.20;;;;;;;18.21;100.00;99937.06;5034827;28;20451;-53
2022/06/27 01:42:50;;;;;;;0.40;0.20;;;;;;;18.27;100.00;99935.81;5034572;28;21060;-53
2022/06/27 01:45:17;;;;;;;0.40;0.20;;;;;;;18.28;100.00;99924.09;5034642;28;20453;-52
2022/06/27 01:47:43;;;;;;;0.40;0.20;;;;;;;18.12;100.00;99904.53;5034704;28;20458;-53
2022/06/27 01:50:11;;;;;;;0.40;0.20;;;;;;;18.28;100.00;99891.78;5034744;28;20455;-53
2022/06/27 01:52:40;;;;;;;0.40;0.20;;;;;;;18.35;100.00;99887.72;5034582;28;20476;-52
2022/06/27 01:55:08;;;;;;;0.40;0.20;;;;;;;18.44;100.00;99889.78;5032370;28;20448;-53
2022/06/27 01:57:34;;;;;;;0.40;0.30;;;;;;;18.62;100.00;99875.06;5034622;28;20462;-53
2022/06/27 02:00:01;;;;;;;0.40;0.20;;;;;;;18.79;100.00;99875.81;5034283;28;20452;-52
2022/06/27 02:02:28;;;;;;;0.40;0.20;;;;;;;18.84;100.00;99868.25;5033486;28;20501;-53
2022/06/27 02:04:56;;;;;;;0.40;0.20;;;;;;;18.93;100.00;99863.09;5034281;28;20454;-52
2022/06/27 02:07:23;;;;;;;0.40;0.20;;;;;;;18.87;100.00;99841.97;5034498;28;20448;-53
2022/06/27 02:09:49;;;;;;;0.40;0.20;;;;;;;19.05;100.00;99856.00;5034355;28;20526;-53
2022/06/27 02:12:19;;;;;;;0.40;0.20;;;;;;;19.20;100.00;99876.47;5033073;28;20490;-53
2022/06/27 02:14:51;;;;;;;0.40;0.20;;;;;;;19.35;100.00;99900.59;5034391;28;20543;-53
2022/06/27 02:17:18;;;;;;;0.53;0.53;;;;;;;19.59;100.00;99906.94;5034467;28;20480;-53
2022/06/27 02:19:45;;;;;;;0.40;0.20;;;;;;;19.44;100.00;99913.41;5026834;28;20445;-52
2022/06/27 02:22:13;;;;;;;0.40;0.20;;;;;;;19.43;100.00;99926.03;5028112;28;20495;-53
2022/06/27 02:24:41;;;;;;;0.40;0.20;;;;;;;19.74;100.00;99945.47;5025105;28;20522;-53
2022/06/27 02:27:09;;;;;;;0.40;0.20;;;;;;;19.39;100.00;99946.09;5024335;28;20552;-52
2022/06/27 02:29:37;;;;;;;0.40;0.20;;;;;;;19.40;100.00;99944.25;5034360;28;20456;-53
2022/06/27 02:32:04;;;;;;;0.40;0.20;;;;;;;19.92;100.00;99945.94;5034204;28;20474;-52
2022/06/27 02:34:33;;;;;;;0.40;0.20;;;;;;;19.46;100.00;99946.50;5033942;28;20447;-53
2022/06/27 02:37:01;;;;;;;0.40;0.20;;;;;;;19.61;100.00;99958.09;5032936;28;20949;-53
2022/06/27 02:39:31;;;;;;;0.40;0.20;;;;;;;19.53;100.00;99937.03;5033728;28;20448;-53
2022/06/27 02:42:01;;;;;;;0.40;0.20;;;;;;;19.56;100.00;99923.34;5050897;22;20500;-52
2022/06/27 02:44:28;;;;;;;0.63;0.63;;;;;;;19.72;100.00;99918.56;5053331;28;20451;-53
2022/06/27 02:46:55;;;;;;;0.40;0.20;;;;;;;19.46;100.00;99933.03;5053443;28;20457;-53
2022/06/27 02:49:22;;;;;;;0.40;0.20;;;;;;;19.53;100.00;99935.19;5053697;28;20473;-52
2022/06/27 02:52:09;;;;;;;0.40;0.20;;;;;;;19.56;100.00;99935.97;5049366;28;20460;-53
2022/06/27 02:54:42;;;;;;;0.40;0.20;;;;;;;19.67;100.00;99944.16;5046327;28;20451;-53
2022/06/27 02:57:31;;;;;;;0.40;0.20;;;;;;;19.76;100.00;99938.97;5027842;28;20947;-53
2022/06/27 03:00:00;;;;;;;0.40;0.20;;;;;;;19.51;100.00;99933.56;5041029;28;20455;-54
2022/06/27 03:02:28;;;;;;;0.40;0.20;;;;;;;19.51;100.00;99937.13;5053142;28;21022;-54
2022/06/27 03:04:56;;;;;;;0.40;0.20;;;;;;;19.45;100.00;99942.09;5053392;28;20457;-54
2022/06/27 03:07:23;;;;;;;0.40;0.20;;;;;;;19.65;100.00;99948.81;5053486;28;20459;-54
2022/06/27 03:09:49;;;;;;;0.40;0.20;;;;;;;19.71;100.00;99959.13;5053183;28;20450;-55
2022/06/27 03:12:16;;;;;;;0.40;0.20;;;;;;;19.85;100.00;99961.69;5053169;28;20466;-54
2022/06/27 03:14:42;;;;;;;0.40;0.20;;;;;;;20.03;100.00;99959.53;5053016;28;20454;-55
2022/06/27 03:17:09;;;;;;;2.33;1.13;;;;;;;19.86;100.00;99966.13;5052761;28;20453;-54
2022/06/27 03:19:35;;;;;;;0.40;0.20;;;;;;;19.74;100.00;99958.94;5034822;28;20448;-55
2022/06/27 03:22:02;;;;;;;0.40;0.20;;;;;;;19.76;100.00;99968.66;5046167;28;20505;-55
2022/06/27 03:24:28;;;;;;;0.40;0.20;;;;;;;19.64;100.00;99966.81;5043774;28;20837;-55
2022/06/27 03:26:55;;;;;;;0.40;0.20;;;;;;;19.60;100.00;99969.81;5044067;28;20455;-54
2022/06/27 03:29:21;;;;;;;0.40;0.30;;;;;;;19.54;100.00;99981.88;5052723;28;20457;-54
2022/06/27 03:31:48;;;;;;;0.40;0.20;;;;;;;19.60;100.00;99994.09;5052676;28;20474;-55
2022/06/27 03:34:14;;;;;;;0.40;0.20;;;;;;;19.56;100.00;99992.59;5052934;28;20533;-54
2022/06/27 03:36:43;;;;;;;0.40;0.20;;;;;;;19.52;100.00;99979.31;5052811;28;20443;-54
2022/06/27 03:39:11;;;;;;;0.40;0.20;;;;;;;19.62;100.00;99976.84;5042869;28;20557;-55
2022/06/27 03:41:39;;;;;;;0.40;0.20;;;;;;;19.53;100.00;99974.78;5045497;28;20498;-55
2022/06/27 03:44:09;;;;;;;0.40;0.20;;;;;;;19.60;100.00;99964.44;5052616;28;20471;-55
2022/06/27 03:46:36;;;;;;;0.40;0.20;;;;;;;19.48;100.00;99956.22;5039126;28;20814;-54
2022/06/27 03:51:48;;;;;;;0.40;0.20;;;;;;;19.77;100.00;99983.00;5052348;28;20463;-55
2022/06/27 03:54:15;;;;;;;0.40;0.20;;;;;;;19.73;100.00;99976.94;5049639;28;20481;-55
2022/06/27 03:56:41;;;;;;;0.40;0.20;;;;;;;19.73;100.00;99976.94;5052177;28;20450;-54
2022/06/27 03:59:08;;;;;;;0.40;0.20;;;;;;;19.54;100.00;99987.28;5052256;28;20947;-54
2022/06/27 04:01:35;;;;;;;0.40;0.20;;;;;;;19.54;100.00;99981.88;5052211;28;20478;-55
2022/06/27 04:04:02;;;;;;;0.40;0.20;;;;;;;19.47;100.00;99988.69;5052388;28;20451;-55
2022/06/27 04:06:29;;;;;;;0.40;0.20;;;;;;;19.60;100.00;99989.59;5052175;28;20455;-54
2022/06/27 04:08:55;;;;;;;0.40;0.20;;;;;;;19.64;100.00;99963.25;5052177;28;20446;-54
2022/06/27 04:11:22;;;;;;;0.40;0.20;;;;;;;19.55;100.00;99956.69;5051811;28;20446;-54
2022/06/27 04:13:48;;;;;;;0.40;0.20;;;;;;;19.73;100.00;99979.63;5052221;28;20447;-55
2022/06/27 04:16:15;;;;;;;0.40;0.20;;;;;;;20.24;100.00;99979.53;5052451;28;20461;-55
2022/06/27 04:18:41;;;;;;;0.40;0.20;;;;;;;20.13;100.00;99977.63;5052128;28;20580;-54
2022/06/27 04:21:08;;;;;;;1.20;0.93;;;;;;;19.96;100.00;99985.22;5038730;28;20447;-55
2022/06/27 04:23:35;;;;;;;0.40;0.20;;;;;;;19.78;100.00;99974.78;5043899;28;20501;-54
2022/06/27 04:26:01;;;;;;;0.40;0.20;;;;;;;19.89;100.00;99981.25;5049635;28;20536;-55
2022/06/27 04:28:28;;;;;;;0.40;0.20;;;;;;;19.92;100.00;99986.41;5044631;28;20967;-54
2022/06/27 04:30:55;;;;;;;0.40;0.20;;;;;;;19.87;100.00;99981.34;5046153;28;20814;-54
2022/06/27 04:33:21;;;;;;;0.40;0.20;;;;;;;20.58;100.00;99987.88;5044443;28;20463;-55
2022/06/27 04:35:48;;;;;;;0.40;0.30;;;;;;;20.33;100.00;99986.97;5051866;28;20453;-54
2022/06/27 04:38:17;;;;;;;0.40;0.20;;;;;;;20.17;100.00;99989.06;5051894;28;20450;-55
2022/06/27 04:40:43;;;;;;;0.40;0.20;;;;;;;20.04;100.00;99975.59;5051896;28;20820;-55
2022/06/27 04:43:10;;;;;;;0.40;0.20;;;;;;;20.05;100.00;99958.44;5051660;28;20497;-55
2022/06/27 04:45:37;;;;;;;0.40;0.20;;;;;;;20.24;100.00;99970.56;5051794;28;20455;-55
2022/06/27 04:48:07;;;;;;;0.40;0.20;;;;;;;20.97;100.00;99971.34;5051869;28;20453;-54
2022/06/27 04:50:36;;;;;;;0.40;0.20;;;;;;;21.28;100.00;99975.28;5025111;28;20805;-55
2022/06/27 04:53:03;;;;;;;0.40;0.30;;;;;;;21.96;100.00;99965.34;5048987;28;20463;-55
2022/06/27 04:55:30;;;;;;;0.40;0.20;;;;;;;22.71;100.00;99965.44;5051972;28;20911;-55
2022/06/27 04:57:57;;;;;;;0.40;0.30;;;;;;;23.10;100.00;99976.63;5052010;28;20451;-54
2022/06/27 05:00:23;;;;;;;0.40;0.20;;;;;;;23.35;100.00;99991.66;5052366;28;20442;-55
2022/06/27 05:02:50;;;;;;;0.40;0.20;;;;;;;23.69;100.00;99995.03;5055232;28;20495;-55
2022/06/27 05:05:17;;;;;;;0.40;0.30;;;;;;;23.69;100.00;100011.31;5055265;28;20868;-55
2022/06/27 05:07:44;;;;;;;0.50;0.40;;;;;;;23.56;100.00;100008.78;5055086;28;20451;-55
2022/06/27 05:10:10;;;;;;;0.40;0.20;;;;;;;22.80;100.00;99998.19;5055186;28;20533;-55
2022/06/27 05:12:37;;;;;;;0.40;0.20;;;;;;;22.39;100.00;99978.97;5055137;28;20476;-55
2022/06/27 05:15:04;;;;;;;0.50;0.40;;;;;;;22.24;100.00;99969.41;5055208;28;20933;-55
2022/06/27 05:17:31;;;;;;;1.77;1.07;;;;;;;22.95;100.00;99970.69;5054845;28;20447;-55
2022/06/27 05:19:58;;;;;;;0.40;0.20;;;;;;;23.43;100.00;99985.56;5045944;28;20830;-56
2022/06/27 05:22:24;;;;;;;0.40;0.20;;;;;;;23.27;100.00;99999.59;5051184;28;20498;-55
2022/06/27 05:24:51;;;;;;;0.40;0.20;;;;;;;22.85;100.00;100020.38;5046814;28;20447;-56
2022/06/27 05:27:18;;;;;;;0.40;0.20;;;;;;;22.42;100.00;100021.19;5045978;28;20492;-55
2022/06/27 05:29:45;;;;;;;0.40;0.20;;;;;;;21.94;100.00;100020.59;5054837;28;20457;-55
2022/06/27 05:32:12;;;;;;;0.40;0.20;;;;;;;21.79;100.00;100028.06;5053416;28;20945;-55
2022/06/27 05:34:39;;;;;;;0.40;0.20;;;;;;;21.86;100.00;100018.50;5055338;28;20872;-55
2022/06/27 05:37:06;;;;;;;0.40;0.20;;;;;;;21.64;100.00;100002.22;5055038;28;20508;-55
2022/06/27 05:39:34;;;;;;;0.40;0.20;;;;;;;21.72;100.00;100005.22;5054971;28;20429;-55
2022/06/27 05:42:01;;;;;;;0.40;0.20;;;;;;;21.75;100.00;100002.25;5054364;28;21028;-55
2022/06/27 05:44:28;;;;;;;0.40;0.20;;;;;;;21.55;100.00;99984.91;5054757;28;20534;-55
2022/06/27 05:46:56;;;;;;;0.40;0.20;;;;;;;21.49;100.00;99986.22;5054418;28;20459;-55
2022/06/27 05:49:24;;;;;;;0.40;0.30;;;;;;;21.43;100.00;100016.47;5054653;28;20443;-55
2022/06/27 05:51:52;;;;;;;0.40;0.20;;;;;;;21.20;100.00;100037.13;5054586;28;20477;-54
2022/06/27 05:54:21;;;;;;;0.40;0.20;;;;;;;21.26;100.00;100047.53;5051988;28;20462;-55
2022/06/27 05:56:48;;;;;;;0.40;0.20;;;;;;;21.00;100.00;100038.69;5054346;28;20892;-55
2022/06/27 05:59:16;;;;;;;0.40;0.20;;;;;;;21.20;100.00;100037.13;5054520;28;20483;-55
2022/06/27 06:01:45;;;;;;;0.40;0.30;;;;;;;21.13;100.00;100033.19;5054072;28;20467;-55
2022/06/27 06:04:12;;;;;;;0.40;0.20;;;;;;;21.18;100.00;100054.47;5054401;28;20491;-55
2022/06/27 06:06:41;;;;;;;0.40;0.20;;;;;;;20.90;100.00;100055.69;5027937;28;20463;-54
2022/06/27 06:09:08;;;;;;;0.60;0.60;;;;;;;21.05;100.00;100059.94;5054336;28;20446;-55
2022/06/27 06:11:35;;;;;;;0.40;0.20;;;;;;;21.09;100.00;100064.13;5054172;28;20466;-55
2022/06/27 06:14:02;;;;;;;0.40;0.20;;;;;;;20.88;100.00;100063.91;5053906;28;20451;-55
2022/06/27 06:16:29;;;;;;;0.40;0.20;;;;;;;21.14;100.00;100078.19;5054425;28;20447;-55
2022/06/27 06:18:57;;;;;;;0.40;0.20;;;;;;;21.11;100.00;100080.25;5053378;28;20458;-55
2022/06/27 06:21:24;;;;;;;0.40;0.20;;;;;;;20.99;100.00;100082.91;5041927;28;20505;-55
2022/06/27 06:23:53;;;;;;;0.40;0.20;;;;;;;20.90;100.00;100094.38;5044886;28;20575;-55
2022/06/27 06:26:20;;;;;;;0.40;0.20;;;;;;;21.00;100.00;100103.53;5049950;28;20460;-55
2022/06/27 06:28:49;;;;;;;0.40;0.20;;;;;;;21.08;100.00;100107.50;5048661;28;20621;-54
2022/06/27 06:31:21;;;;;;;0.40;0.20;;;;;;;21.46;100.00;100123.56;5053680;28;20979;-55
2022/06/27 06:33:53;;;;;;;0.40;0.20;;;;;;;21.38;100.00;100113.34;5053860;28;20424;-55
2022/06/27 06:36:23;;;;;;;0.40;0.20;;;;;;;21.40;100.00;100105.09;5053888;28;20458;-55
2022/06/27 06:38:51;;;;;;;0.40;0.20;;;;;;;21.42;100.00;100098.59;5053531;28;20818;-55
2022/06/27 06:41:19;;;;;;;0.40;0.20;;;;;;;21.39;100.00;100101.53;5053339;28;20443;-55
2022/06/27 06:43:46;;;;;;;0.40;0.20;;;;;;;21.32;100.00;100081.34;5053392;28;21058;-54
2022/06/27 06:46:14;;;;;;;0.40;0.20;;;;;;;21.25;100.00;100072.00;5053668;28;20451;-54
2022/06/27 06:48:40;;;;;;;0.40;0.20;;;;;;;21.49;100.00;100080.91;5053433;28;20450;-55
2022/06/27 06:51:16;;;;;;;0.40;0.20;;;;;;;21.20;100.00;100072.28;5053453;28;20534;-55
2022/06/27 06:53:43;;;;;;;0.40;0.20;;;;;;;21.38;100.00;100074.59;5050105;28;20512;-55
2022/06/27 06:56:10;;;;;;;0.40;0.20;;;;;;;21.14;100.00;100066.50;5053344;28;20451;-55
2022/06/27 06:58:37;;;;;;;0.40;0.20;;;;;;;21.04;100.00;100054.66;5053385;28;20483;-55
2022/06/27 07:01:03;;;;;;;0.40;0.20;;;;;;;21.55;100.00;100069.63;5053351;28;20952;-55
2022/06/27 07:03:30;;;;;;;0.40;0.20;;;;;;;21.81;100.00;100064.03;5053041;28;20486;-55
2022/06/27 07:05:58;;;;;;;0.40;0.20;;;;;;;21.88;100.00;100065.25;5053382;28;20541;-55
2022/06/27 07:08:24;;;;;;;0.40;0.20;;;;;;;21.88;100.00;100066.09;5053030;28;20969;-55
2022/06/27 07:10:51;;;;;;;0.40;0.20;;;;;;;22.28;100.00;100059.38;5053119;28;20425;-55
2022/06/27 07:13:19;;;;;;;0.40;0.20;;;;;;;22.87;100.00;100061.75;5053037;28;20979;-55
2022/06/27 07:15:46;;;;;;;0.40;0.30;;;;;;;23.02;100.00;100074.91;5052980;28;20451;-55
2022/06/27 07:18:13;;;;;;;0.40;0.20;;;;;;;22.64;100.00;100075.34;5052995;28;20936;-55
2022/06/27 07:20:39;;;;;;;0.40;0.20;;;;;;;22.88;100.00;100072.47;5039340;28;20936;-55
2022/06/27 07:23:06;;;;;;;0.40;0.20;;;;;;;22.98;100.00;100078.88;5047961;28;20996;-55
2022/06/27 07:25:35;;;;;;;0.40;0.20;;;;;;;23.19;100.00;100083.50;5047848;28;20825;-55
2022/06/27 07:28:01;;;;;;;0.40;0.20;;;;;;;23.88;100.00;100082.03;5043625;28;20824;-55
2022/06/27 07:30:28;;;;;;;0.40;0.20;;;;;;;23.67;97.62;100074.88;5052662;28;20446;-55
2022/06/27 07:32:55;;;;;;;0.40;0.20;;;;;;;23.73;100.00;100067.09;5052633;28;20861;-55
2022/06/27 07:35:22;;;;;;;0.40;0.20;;;;;;;23.92;100.00;100075.31;5052602;28;20454;-56
2022/06/27 07:37:49;;;;;;;0.40;0.20;;;;;;;23.63;100.00;100082.44;5052573;28;20793;-55
2022/06/27 07:40:21;;;;;;;0.40;0.20;;;;;;;23.35;100.00;100081.19;5051135;28;20432;-55
2022/06/27 07:42:50;;;;;;;0.40;0.20;;;;;;;23.47;100.00;100084.72;5052255;28;20962;-55
2022/06/27 07:45:22;;;;;;;0.40;0.20;;;;;;;23.44;100.00;100085.00;5052327;28;20520;-55
2022/06/27 07:47:49;;;;;;;0.40;0.20;;;;;;;23.38;100.00;100093.63;5052268;28;20432;-55
2022/06/27 07:50:36;;;;;;;0.40;0.20;;;;;;;23.46;98.76;100104.72;5052514;28;20443;-55
2022/06/27 07:53:20;;;;;;;0.40;0.20;;;;;;;23.79;98.69;100100.97;5050908;28;20879;-55
2022/06/27 07:55:53;;;;;;;0.40;0.20;;;;;;;24.14;96.08;100103.34;5052444;28;20530;-55
2022/06/27 07:58:30;;;;;;;0.40;0.20;;;;;;;23.98;99.83;100105.66;5052678;28;20933;-55
2022/06/27 08:01:08;;;;;;;0.40;0.20;;;;;;;23.86;95.59;100096.75;5052417;28;20453;-55
2022/06/27 08:03:44;;;;;;;0.40;0.20;;;;;;;23.82;98.40;100090.69;5052095;28;20834;-55
2022/06/27 08:06:19;;;;;;;0.40;0.20;;;;;;;23.35;98.24;100090.19;5052174;28;20451;-55
2022/06/27 08:08:48;;;;;;;0.40;0.20;;;;;;;23.46;100.00;100083.00;5052093;28;20436;-55
2022/06/27 08:11:27;;;;;;;0.40;0.20;;;;;;;23.53;98.41;100089.59;5052145;28;20504;-55
2022/06/27 08:13:56;;;;;;;0.40;0.30;;;;;;;23.57;100.00;100097.41;5052116;28;20880;-55
2022/06/27 08:16:24;;;;;;;0.40;0.20;;;;;;;23.21;100.00;100101.34;5026540;28;20455;-54
2022/06/27 08:18:52;;;;;;;0.40;0.30;;;;;;;23.34;98.34;100099.31;5051903;28;20421;-54
2022/06/27 08:21:23;;;;;;;0.40;0.20;;;;;;;23.35;100.00;100094.75;5026333;28;20424;-55
2022/06/27 08:24:00;;;;;;;0.40;0.20;;;;;;;23.55;100.00;100093.91;5043100;28;20472;-55
2022/06/27 08:26:30;;;;;;;0.40;0.20;;;;;;;23.41;98.97;100104.22;5047143;28;20875;-55
2022/06/27 08:29:00;;;;;;;0.40;0.20;;;;;;;23.38;97.98;100108.06;5048326;28;20451;-54
2022/06/27 08:31:29;;;;;;;0.40;0.20;;;;;;;23.46;97.63;100123.69;5051916;28;20473;-55
2022/06/27 08:34:01;;;;;;;0.40;0.20;;;;;;;23.56;97.20;100130.03;5051766;28;20454;-54
2022/06/27 08:36:30;;;;;;;0.40;0.20;;;;;;;23.62;99.25;100129.56;5054280;28;20481;-55
2022/06/27 08:39:05;;;;;;;0.40;0.20;;;;;;;23.63;97.80;100140.28;5055874;28;20966;-55
2022/06/27 08:44:06;;;;;;;0.40;0.20;;;;;;;23.72;100.00;100143.22;5041564;28;20468;-53
2022/06/27 08:46:34;;;;;;;0.40;0.20;;;;;;;23.69;100.00;100151.59;5055624;28;20525;-52
2022/06/27 08:49:02;;;;;;;0.40;0.20;;;;;;;23.69;100.00;100155.19;5055957;28;20447;-53
2022/06/27 08:51:31;;;;;;;0.40;0.20;;;;;;;23.72;99.46;100152.22;5055350;28;20482;-52
2022/06/27 08:53:58;;;;;;;0.40;0.20;;;;;;;23.64;100.00;100154.72;5033095;28;20911;-52
2022/06/27 08:56:27;;;;;;;0.40;0.20;;;;;;;23.79;96.82;100153.41;5035615;28;20440;-52
2022/06/27 08:58:55;;;;;;;0.40;0.30;;;;;;;23.82;100.00;100149.56;5035562;28;20441;-52
2022/06/27 09:01:23;;;;;;;0.40;0.20;;;;;;;23.71;98.15;100153.22;5035654;28;20450;-52
2022/06/27 09:04:06;;;;;;;0.40;0.20;;;;;;;23.98;97.86;100158.09;5035478;28;20544;-52
2022/06/27 09:06:53;;;;;;;0.40;0.20;;;;;;;23.67;97.39;100154.47;5035411;28;20526;-52
2022/06/27 09:09:23;;;;;;;0.40;0.20;;;;;;;23.98;98.10;100171.69;5035326;28;20443;-52
2022/06/27 09:11:50;;;;;;;0.40;0.27;;;;;;;24.12;95.26;100170.50;5035526;28;20451;-52
2022/06/27 09:14:30;;;;;;;0.40;0.20;;;;;;;23.96;97.27;100162.81;5035359;28;20522;-52
2022/06/27 09:16:58;;;;;;;0.40;0.20;;;;;;;24.18;95.44;100170.84;5035388;28;20426;-52
2022/06/27 09:19:47;;;;;;;0.40;0.30;;;;;;;24.01;95.70;100171.44;5035099;28;20823;-52
2022/06/27 09:22:16;;;;;;;0.40;0.20;;;;;;;24.21;96.25;100183.28;5035051;28;21072;-53
2022/06/27 09:25:13;;;;;;;0.40;0.20;;;;;;;23.94;92.97;100172.94;5026271;28;20466;-52
2022/06/27 09:27:45;;;;;;;0.40;0.20;;;;;;;23.41;95.94;100155.75;5025331;28;20477;-51
2022/06/27 09:30:32;;;;;;;0.40;0.20;;;;;;;23.91;100.00;100170.50;5035155;28;20418;-52
2022/06/27 09:33:00;;;;;;;0.40;0.20;;;;;;;23.85;100.00;100174.63;5035286;28;20987;-52
2022/06/27 09:35:36;;;;;;;0.40;0.20;;;;;;;23.81;100.00;100172.28;5035126;28;20509;-52
2022/06/27 09:38:04;;;;;;;0.40;0.20;;;;;;;23.48;100.00;100179.56;5035180;28;20443;-52
2022/06/27 09:40:33;;;;;;;0.60;0.57;;;;;;;23.49;100.00;100186.69;5014531;28;20919;-52
2022/06/27 09:43:04;;;;;;;0.50;0.47;;;;;;;23.37;100.00;100185.00;5026982;28;20478;-52
2022/06/27 09:45:32;;;;;;;0.40;0.20;;;;;;;23.38;100.00;100188.59;5034899;28;20509;-53
2022/06/27 09:48:04;;;;;;;0.40;0.23;;;;;;;23.25;100.00;100199.59;5034854;28;20451;-52
2022/06/27 09:50:34;;;;;;;0.50;0.50;;;;;;;23.44;100.00;100210.66;5034681;28;20538;-53
2022/06/27 09:53:01;;;;;;;0.40;0.20;;;;;;;23.45;100.00;100223.25;5031259;28;20567;-52
2022/06/27 09:55:29;;;;;;;0.40;0.20;;;;;;;22.94;100.00;100222.94;5034895;28;20539;-53
2022/06/27 09:57:56;;;;;;;0.40;0.20;;;;;;;22.86;100.00;100222.69;5034576;28;20448;-52
2022/06/27 10:00:24;;;;;;;0.40;0.20;;;;;;;23.19;100.00;100219.09;5034650;28;20462;-52
2022/06/27 10:02:51;;;;;;;0.40;0.30;;;;;;;23.13;100.00;100215.03;5034310;28;20995;-53
2022/06/27 10:05:19;;;;;;;0.40;0.20;;;;;;;23.12;100.00;100213.31;5034456;28;20462;-53
2022/06/27 10:07:54;;;;;;;0.40;0.20;;;;;;;23.29;100.00;100212.78;5034911;28;20463;-52
2022/06/27 10:10:21;;;;;;;0.40;0.20;;;;;;;23.28;99.11;100215.59;5034649;28;20447;-53
2022/06/27 10:13:03;;;;;;;0.40;0.20;;;;;;;23.09;99.86;100210.00;5034122;28;20459;-53
2022/06/27 10:15:32;;;;;;;0.40;0.20;;;;;;;23.17;95.66;100224.66;5034150;28;20956;-53
2022/06/27 10:18:01;;;;;;;0.40;0.20;;;;;;;23.32;95.05;100223.38;5033975;28;20422;-52
2022/06/27 10:20:38;;;;;;;0.40;0.20;;;;;;;23.63;96.19;100227.16;5034484;28;20447;-53
2022/06/27 10:23:11;;;;;;;0.40;0.20;;;;;;;23.59;91.62;100227.53;5006796;28;20447;-52
2022/06/27 10:25:42;;;;;;;0.40;0.30;;;;;;;23.39;90.40;100233.72;5029580;28;20508;-53
2022/06/27 10:28:12;;;;;;;0.40;0.20;;;;;;;23.62;90.28;100243.56;5023527;28;20427;-52
2022/06/27 10:30:47;;;;;;;0.40;0.30;;;;;;;23.38;88.40;100245.56;5033869;28;20517;-52
2022/06/27 10:33:26;;;;;;;0.40;0.20;;;;;;;23.28;88.23;100240.88;5034105;28;20452;-52
2022/06/27 10:38:34;;;;;;;0.40;0.20;;;;;;;23.74;87.73;100238.97;5033514;28;20962;-53
2022/06/27 10:41:03;;;;;;;0.40;0.20;;;;;;;23.75;88.36;100240.69;5033740;28;20478;-53
2022/06/27 10:43:41;;;;;;;0.40;0.20;;;;;;;23.88;88.45;100250.38;5033416;28;20534;-53
2022/06/27 10:46:10;;;;;;;0.40;0.20;;;;;;;23.99;86.19;100248.63;5033964;28;20482;-53
2022/06/27 10:48:40;;;;;;;0.40;0.20;;;;;;;24.22;85.97;100242.91;5032350;28;20502;-53
2022/06/27 10:51:22;;;;;;;0.40;0.20;;;;;;;24.26;85.95;100251.69;5033647;28;20521;-53
2022/06/27 10:53:51;;;;;;;0.40;0.20;;;;;;;24.36;84.46;100249.91;5031173;28;20439;-53
2022/06/27 10:56:43;;;;;;;0.40;0.20;;;;;;;23.82;84.62;100255.44;5033521;28;20426;-52
2022/06/27 10:59:12;;;;;;;0.40;0.20;;;;;;;24.35;84.76;100252.75;5023677;28;20927;-52
2022/06/27 11:01:41;;;;;;;0.40;0.20;;;;;;;24.02;85.91;100254.63;5033093;28;20426;-52
2022/06/27 11:04:32;;;;;;;0.40;0.20;;;;;;;24.02;86.00;100257.34;5033469;28;20633;-53
2022/06/27 11:07:01;;;;;;;0.40;0.20;;;;;;;24.10;84.62;100252.13;5033319;28;20792;-53
2022/06/27 11:09:43;;;;;;;0.40;0.20;;;;;;;24.09;86.58;100254.97;5033209;28;20427;-53
2022/06/27 11:12:12;;;;;;;0.40;0.20;;;;;;;24.22;84.74;100259.22;5033117;28;20448;-53
2022/06/27 11:14:47;;;;;;;0.40;0.20;;;;;;;24.14;87.35;100279.91;5033115;28;20422;-52
2022/06/27 11:17:27;;;;;;;0.40;0.20;;;;;;;24.00;89.08;100278.34;5033311;28;20951;-52
2022/06/27 11:20:11;;;;;;;0.40;0.20;;;;;;;23.55;90.00;100269.44;5033296;28;20437;-52
2022/06/27 11:23:00;;;;;;;0.40;0.20;;;;;;;23.56;90.46;100271.16;5004846;28;20468;-53
2022/06/27 11:25:29;;;;;;;0.40;0.20;;;;;;;23.28;91.62;100268.00;5027170;28;20473;-52
2022/06/27 11:33:35;;;;;;;0.40;0.20;;;;;;;23.25;92.39;100265.56;5032692;28;21017;-52
2022/06/27 11:36:02;;;;;;;0.40;0.20;;;;;;;23.33;92.21;100276.66;5033142;28;20429;-52
2022/06/27 11:38:32;;;;;;;0.40;0.20;;;;;;;23.26;92.29;100282.69;5032655;28;20533;-52
2022/06/27 11:41:01;;;;;;;0.40;0.20;;;;;;;23.11;92.02;100301.06;5032713;28;20423;-52
2022/06/27 11:43:47;;;;;;;0.40;0.20;;;;;;;23.09;98.08;100303.06;5032205;28;20492;-52